sensor_id;sensor_type;location;lat;lon;timestamp;P1;durP1;ratioP1;P2;durP2;ratioP2
5646;SDS011;2845;48.626;9.362;2023-06-22T00:02:13;7.18;;;3.20;;
5646;SDS011;2845;48.626;9.362;2023-06-22T00:04:48;6.47;;;3.50;;
5646;SDS011;2845;48.626;9.362;2023-06-22T00:07:22;6.22;;;4.00;;
5646;SDS011;2845;48.626;9.362;2023-06-22T00:09:56;7.60;;;3.67;;
5646;SDS011;2845;48.626;9.362;2023-06-22T00:12:32;7.45;;;3.88;;
5646;SDS011;2845;48.626;9.362;2023-06-22T00:15:06;4.72;;;3.00;;
5646;SDS011;2845;48.626;9.362;2023-06-22T00:17:41;5.38;;;3.17;;
5646;SDS011;2845;48.626;9.362;2023-06-22T00:20:15;6.13;;;3.47;;
5646;SDS011;2845;48.626;9.362;2023-06-22T00:22:50;7.45;;;3.47;;
5646;SDS011;2845;48.626;9.362;2023-06-22T00:25:24;4.72;;;2.90;;
5646;SDS011;2845;48.626;9.362;2023-06-22T00:28:00;6.18;;;3.25;;
5646;SDS011;2845;48.626;9.362;2023-06-22T00:30:35;6.53;;;3.35;;
5646;SDS011;2845;48.626;9.362;2023-06-22T00:33:09;5.38;;;3.13;;
5646;SDS011;2845;48.626;9.362;2023-06-22T00:35:44;6.55;;;3.22;;
5646;SDS011;2845;48.626;9.362;2023-06-22T00:38:18;5.97;;;3.83;;
5646;SDS011;2845;48.626;9.362;2023-06-22T00:40:53;6.95;;;3.33;;
5646;SDS011;2845;48.626;9.362;2023-06-22T00:43:28;6.47;;;3.55;;
5646;SDS011;2845;48.626;9.362;2023-06-22T00:46:02;5.47;;;3.30;;
5646;SDS011;2845;48.626;9.362;2023-06-22T00:48:37;5.40;;;3.30;;
5646;SDS011;2845;48.626;9.362;2023-06-22T00:51:12;5.57;;;3.42;;
5646;SDS011;2845;48.626;9.362;2023-06-22T00:53:46;6.03;;;3.50;;
5646;SDS011;2845;48.626;9.362;2023-06-22T00:56:21;7.90;;;3.20;;
5646;SDS011;2845;48.626;9.362;2023-06-22T00:58:58;6.97;;;3.70;;
5646;SDS011;2845;48.626;9.362;2023-06-22T01:01:35;8.10;;;3.22;;
5646;SDS011;2845;48.626;9.362;2023-06-22T01:04:12;6.68;;;3.13;;
5646;SDS011;2845;48.626;9.362;2023-06-22T01:06:49;5.97;;;3.60;;
5646;SDS011;2845;48.626;9.362;2023-06-22T01:09:31;6.45;;;3.00;;
5646;SDS011;2845;48.626;9.362;2023-06-22T01:12:12;7.25;;;2.97;;
5646;SDS011;2845;48.626;9.362;2023-06-22T01:14:52;6.50;;;3.33;;
5646;SDS011;2845;48.626;9.362;2023-06-22T01:17:33;6.15;;;3.00;;
5646;SDS011;2845;48.626;9.362;2023-06-22T01:20:09;6.22;;;3.17;;
5646;SDS011;2845;48.626;9.362;2023-06-22T01:22:49;6.53;;;3.33;;
5646;SDS011;2845;48.626;9.362;2023-06-22T01:25:43;5.18;;;3.00;;
5646;SDS011;2845;48.626;9.362;2023-06-22T01:28:32;6.70;;;3.45;;
5646;SDS011;2845;48.626;9.362;2023-06-22T01:31:19;9.98;;;3.55;;
5646;SDS011;2845;48.626;9.362;2023-06-22T01:33:59;5.30;;;3.03;;
5646;SDS011;2845;48.626;9.362;2023-06-22T01:36:36;5.63;;;3.38;;
5646;SDS011;2845;48.626;9.362;2023-06-22T01:39:12;5.78;;;3.15;;
5646;SDS011;2845;48.626;9.362;2023-06-22T01:41:47;5.22;;;3.15;;
5646;SDS011;2845;48.626;9.362;2023-06-22T01:44:23;5.10;;;2.95;;
5646;SDS011;2845;48.626;9.362;2023-06-22T01:46:59;7.03;;;2.75;;
5646;SDS011;2845;48.626;9.362;2023-06-22T01:49:33;5.82;;;3.28;;
5646;SDS011;2845;48.626;9.362;2023-06-22T01:52:08;7.68;;;3.53;;
5646;SDS011;2845;48.626;9.362;2023-06-22T01:54:42;6.72;;;3.40;;
5646;SDS011;2845;48.626;9.362;2023-06-22T01:57:16;6.07;;;3.10;;
5646;SDS011;2845;48.626;9.362;2023-06-22T01:59:54;6.95;;;2.85;;
5646;SDS011;2845;48.626;9.362;2023-06-22T02:02:36;5.45;;;2.85;;
5646;SDS011;2845;48.626;9.362;2023-06-22T02:05:16;4.80;;;2.75;;
5646;SDS011;2845;48.626;9.362;2023-06-22T02:07:52;6.30;;;3.40;;
5646;SDS011;2845;48.626;9.362;2023-06-22T02:10:33;13.85;;;3.70;;
5646;SDS011;2845;48.626;9.362;2023-06-22T02:13:10;7.80;;;3.55;;
5646;SDS011;2845;48.626;9.362;2023-06-22T02:15:47;4.95;;;3.15;;
5646;SDS011;2845;48.626;9.362;2023-06-22T02:18:22;6.53;;;3.00;;
5646;SDS011;2845;48.626;9.362;2023-06-22T02:20:57;5.25;;;2.97;;
5646;SDS011;2845;48.626;9.362;2023-06-22T02:23:32;5.72;;;3.08;;
5646;SDS011;2845;48.626;9.362;2023-06-22T02:26:07;5.43;;;3.30;;
5646;SDS011;2845;48.626;9.362;2023-06-22T02:28:42;5.85;;;3.17;;
5646;SDS011;2845;48.626;9.362;2023-06-22T02:31:18;6.65;;;3.20;;
5646;SDS011;2845;48.626;9.362;2023-06-22T02:33:53;5.15;;;2.78;;
5646;SDS011;2845;48.626;9.362;2023-06-22T02:36:27;6.72;;;3.03;;
5646;SDS011;2845;48.626;9.362;2023-06-22T02:39:03;6.88;;;3.53;;
5646;SDS011;2845;48.626;9.362;2023-06-22T02:41:37;5.88;;;3.10;;
5646;SDS011;2845;48.626;9.362;2023-06-22T02:44:11;7.13;;;3.75;;
5646;SDS011;2845;48.626;9.362;2023-06-22T02:46:47;8.45;;;3.50;;
5646;SDS011;2845;48.626;9.362;2023-06-22T02:49:22;6.35;;;3.60;;
5646;SDS011;2845;48.626;9.362;2023-06-22T02:51:56;7.43;;;3.75;;
5646;SDS011;2845;48.626;9.362;2023-06-22T02:54:31;8.18;;;3.25;;
5646;SDS011;2845;48.626;9.362;2023-06-22T02:57:06;6.18;;;3.10;;
5646;SDS011;2845;48.626;9.362;2023-06-22T02:59:46;5.70;;;3.00;;
5646;SDS011;2845;48.626;9.362;2023-06-22T03:02:21;5.40;;;3.28;;
5646;SDS011;2845;48.626;9.362;2023-06-22T03:04:56;5.85;;;3.60;;
5646;SDS011;2845;48.626;9.362;2023-06-22T03:07:30;8.10;;;3.33;;
5646;SDS011;2845;48.626;9.362;2023-06-22T03:10:05;8.02;;;3.35;;
5646;SDS011;2845;48.626;9.362;2023-06-22T03:12:42;6.22;;;2.78;;
5646;SDS011;2845;48.626;9.362;2023-06-22T03:15:16;6.25;;;3.20;;
5646;SDS011;2845;48.626;9.362;2023-06-22T03:17:55;5.57;;;3.30;;
5646;SDS011;2845;48.626;9.362;2023-06-22T03:20:29;5.97;;;3.45;;
5646;SDS011;2845;48.626;9.362;2023-06-22T03:23:06;6.47;;;3.53;;
5646;SDS011;2845;48.626;9.362;2023-06-22T03:25:40;8.93;;;3.47;;
5646;SDS011;2845;48.626;9.362;2023-06-22T03:28:16;4.75;;;2.78;;
5646;SDS011;2845;48.626;9.362;2023-06-22T03:30:51;5.78;;;3.15;;
5646;SDS011;2845;48.626;9.362;2023-06-22T03:33:26;5.28;;;3.13;;
5646;SDS011;2845;48.626;9.362;2023-06-22T03:36:00;6.35;;;3.40;;
5646;SDS011;2845;48.626;9.362;2023-06-22T03:38:35;5.03;;;2.85;;
5646;SDS011;2845;48.626;9.362;2023-06-22T03:41:12;5.50;;;2.80;;
5646;SDS011;2845;48.626;9.362;2023-06-22T03:43:47;6.10;;;2.92;;
5646;SDS011;2845;48.626;9.362;2023-06-22T03:46:21;5.90;;;2.97;;
5646;SDS011;2845;48.626;9.362;2023-06-22T03:48:57;5.32;;;2.97;;
5646;SDS011;2845;48.626;9.362;2023-06-22T03:51:32;6.30;;;3.17;;
5646;SDS011;2845;48.626;9.362;2023-06-22T03:54:06;4.35;;;2.45;;
5646;SDS011;2845;48.626;9.362;2023-06-22T03:56:40;7.18;;;3.13;;
5646;SDS011;2845;48.626;9.362;2023-06-22T03:59:15;4.68;;;2.42;;
5646;SDS011;2845;48.626;9.362;2023-06-22T04:01:49;4.15;;;2.60;;
5646;SDS011;2845;48.626;9.362;2023-06-22T04:04:25;6.32;;;3.50;;
5646;SDS011;2845;48.626;9.362;2023-06-22T04:07:00;5.43;;;3.20;;
5646;SDS011;2845;48.626;9.362;2023-06-22T04:09:34;5.43;;;2.80;;
5646;SDS011;2845;48.626;9.362;2023-06-22T04:12:09;7.32;;;3.22;;
5646;SDS011;2845;48.626;9.362;2023-06-22T04:14:43;5.75;;;2.85;;
5646;SDS011;2845;48.626;9.362;2023-06-22T04:17:17;5.40;;;3.05;;
5646;SDS011;2845;48.626;9.362;2023-06-22T04:19:53;5.95;;;3.30;;
5646;SDS011;2845;48.626;9.362;2023-06-22T04:22:27;6.55;;;3.03;;
5646;SDS011;2845;48.626;9.362;2023-06-22T04:25:02;6.57;;;3.10;;
5646;SDS011;2845;48.626;9.362;2023-06-22T04:27:37;6.10;;;3.13;;
5646;SDS011;2845;48.626;9.362;2023-06-22T04:30:12;5.28;;;2.70;;
5646;SDS011;2845;48.626;9.362;2023-06-22T04:32:48;6.18;;;3.35;;
5646;SDS011;2845;48.626;9.362;2023-06-22T04:35:30;5.35;;;3.25;;
5646;SDS011;2845;48.626;9.362;2023-06-22T04:38:04;6.88;;;2.92;;
5646;SDS011;2845;48.626;9.362;2023-06-22T04:40:38;5.20;;;2.80;;
5646;SDS011;2845;48.626;9.362;2023-06-22T04:43:13;6.53;;;3.42;;
5646;SDS011;2845;48.626;9.362;2023-06-22T04:45:47;8.05;;;4.13;;
5646;SDS011;2845;48.626;9.362;2023-06-22T04:48:25;6.68;;;4.18;;
5646;SDS011;2845;48.626;9.362;2023-06-22T04:51:06;7.40;;;4.38;;
5646;SDS011;2845;48.626;9.362;2023-06-22T04:53:40;9.05;;;4.35;;
5646;SDS011;2845;48.626;9.362;2023-06-22T04:56:15;8.23;;;4.32;;
5646;SDS011;2845;48.626;9.362;2023-06-22T04:58:49;6.97;;;3.85;;
5646;SDS011;2845;48.626;9.362;2023-06-22T05:01:24;6.57;;;3.20;;
5646;SDS011;2845;48.626;9.362;2023-06-22T05:03:58;7.32;;;4.15;;
5646;SDS011;2845;48.626;9.362;2023-06-22T05:06:36;8.93;;;4.53;;
5646;SDS011;2845;48.626;9.362;2023-06-22T05:09:12;7.03;;;3.60;;
5646;SDS011;2845;48.626;9.362;2023-06-22T05:11:47;7.15;;;4.22;;
5646;SDS011;2845;48.626;9.362;2023-06-22T05:14:22;8.65;;;4.72;;
5646;SDS011;2845;48.626;9.362;2023-06-22T05:16:56;8.20;;;3.70;;
5646;SDS011;2845;48.626;9.362;2023-06-22T05:19:36;8.38;;;4.13;;
5646;SDS011;2845;48.626;9.362;2023-06-22T05:22:12;5.57;;;3.35;;
5646;SDS011;2845;48.626;9.362;2023-06-22T05:24:46;6.70;;;3.95;;
5646;SDS011;2845;48.626;9.362;2023-06-22T05:27:21;6.03;;;3.65;;
5646;SDS011;2845;48.626;9.362;2023-06-22T05:29:55;7.43;;;4.20;;
5646;SDS011;2845;48.626;9.362;2023-06-22T05:32:30;6.25;;;3.65;;
5646;SDS011;2845;48.626;9.362;2023-06-22T05:35:04;6.63;;;3.85;;
5646;SDS011;2845;48.626;9.362;2023-06-22T05:37:41;7.28;;;3.83;;
5646;SDS011;2845;48.626;9.362;2023-06-22T05:40:15;6.72;;;3.85;;
5646;SDS011;2845;48.626;9.362;2023-06-22T05:42:49;6.20;;;3.47;;
5646;SDS011;2845;48.626;9.362;2023-06-22T05:45:23;8.60;;;4.10;;
5646;SDS011;2845;48.626;9.362;2023-06-22T05:47:58;7.47;;;3.47;;
5646;SDS011;2845;48.626;9.362;2023-06-22T05:50:32;6.25;;;3.72;;
5646;SDS011;2845;48.626;9.362;2023-06-22T05:53:08;5.63;;;3.17;;
5646;SDS011;2845;48.626;9.362;2023-06-22T05:55:42;7.00;;;3.20;;
5646;SDS011;2845;48.626;9.362;2023-06-22T05:58:16;7.13;;;3.63;;
5646;SDS011;2845;48.626;9.362;2023-06-22T06:00:50;6.80;;;3.60;;
5646;SDS011;2845;48.626;9.362;2023-06-22T06:03:24;6.82;;;3.85;;
5646;SDS011;2845;48.626;9.362;2023-06-22T06:06:01;5.15;;;3.13;;
5646;SDS011;2845;48.626;9.362;2023-06-22T06:08:37;7.65;;;3.95;;
5646;SDS011;2845;48.626;9.362;2023-06-22T06:11:11;6.32;;;3.22;;
5646;SDS011;2845;48.626;9.362;2023-06-22T06:13:45;5.93;;;3.10;;
5646;SDS011;2845;48.626;9.362;2023-06-22T06:16:19;5.30;;;2.85;;
5646;SDS011;2845;48.626;9.362;2023-06-22T06:18:53;4.70;;;2.63;;
5646;SDS011;2845;48.626;9.362;2023-06-22T06:21:28;5.57;;;2.78;;
5646;SDS011;2845;48.626;9.362;2023-06-22T06:24:04;6.93;;;2.70;;
5646;SDS011;2845;48.626;9.362;2023-06-22T06:26:39;7.75;;;3.80;;
5646;SDS011;2845;48.626;9.362;2023-06-22T06:29:15;6.15;;;3.40;;
5646;SDS011;2845;48.626;9.362;2023-06-22T06:31:49;7.45;;;2.80;;
5646;SDS011;2845;48.626;9.362;2023-06-22T06:34:26;5.75;;;3.15;;
5646;SDS011;2845;48.626;9.362;2023-06-22T06:37:00;6.30;;;2.60;;
5646;SDS011;2845;48.626;9.362;2023-06-22T06:39:35;5.57;;;2.80;;
5646;SDS011;2845;48.626;9.362;2023-06-22T06:42:10;6.40;;;3.20;;
5646;SDS011;2845;48.626;9.362;2023-06-22T06:44:44;5.07;;;2.92;;
5646;SDS011;2845;48.626;9.362;2023-06-22T06:47:18;7.40;;;3.00;;
5646;SDS011;2845;48.626;9.362;2023-06-22T06:49:52;4.60;;;2.83;;
5646;SDS011;2845;48.626;9.362;2023-06-22T06:52:27;3.75;;;2.50;;
5646;SDS011;2845;48.626;9.362;2023-06-22T06:55:03;7.45;;;2.97;;
5646;SDS011;2845;48.626;9.362;2023-06-22T06:57:40;6.60;;;2.42;;
5646;SDS011;2845;48.626;9.362;2023-06-22T07:00:16;6.78;;;2.85;;
5646;SDS011;2845;48.626;9.362;2023-06-22T07:02:52;4.30;;;2.40;;
5646;SDS011;2845;48.626;9.362;2023-06-22T07:05:26;4.18;;;2.78;;
5646;SDS011;2845;48.626;9.362;2023-06-22T07:08:01;3.80;;;2.45;;
5646;SDS011;2845;48.626;9.362;2023-06-22T07:10:36;5.18;;;2.88;;
5646;SDS011;2845;48.626;9.362;2023-06-22T07:13:11;5.18;;;2.50;;
5646;SDS011;2845;48.626;9.362;2023-06-22T07:15:45;5.53;;;2.45;;
5646;SDS011;2845;48.626;9.362;2023-06-22T07:18:19;4.22;;;2.30;;
5646;SDS011;2845;48.626;9.362;2023-06-22T07:20:53;6.38;;;2.70;;
5646;SDS011;2845;48.626;9.362;2023-06-22T07:23:28;6.82;;;3.00;;
5646;SDS011;2845;48.626;9.362;2023-06-22T07:26:04;4.60;;;2.50;;
5646;SDS011;2845;48.626;9.362;2023-06-22T07:28:39;4.70;;;2.80;;
5646;SDS011;2845;48.626;9.362;2023-06-22T07:31:13;5.57;;;2.88;;
5646;SDS011;2845;48.626;9.362;2023-06-22T07:33:47;4.32;;;2.33;;
5646;SDS011;2845;48.626;9.362;2023-06-22T07:36:22;5.47;;;2.85;;
5646;SDS011;2845;48.626;9.362;2023-06-22T07:38:56;5.63;;;2.65;;
5646;SDS011;2845;48.626;9.362;2023-06-22T07:41:31;3.88;;;2.50;;
5646;SDS011;2845;48.626;9.362;2023-06-22T07:44:06;5.72;;;2.40;;
5646;SDS011;2845;48.626;9.362;2023-06-22T07:46:40;5.15;;;2.80;;
5646;SDS011;2845;48.626;9.362;2023-06-22T07:49:14;7.35;;;3.10;;
5646;SDS011;2845;48.626;9.362;2023-06-22T07:51:50;6.00;;;2.97;;
5646;SDS011;2845;48.626;9.362;2023-06-22T07:54:24;10.15;;;3.08;;
5646;SDS011;2845;48.626;9.362;2023-06-22T07:56:59;4.28;;;2.40;;
5646;SDS011;2845;48.626;9.362;2023-06-22T07:59:34;6.03;;;3.03;;
5646;SDS011;2845;48.626;9.362;2023-06-22T08:02:08;5.68;;;2.95;;
5646;SDS011;2845;48.626;9.362;2023-06-22T08:04:43;7.35;;;3.33;;
5646;SDS011;2845;48.626;9.362;2023-06-22T08:07:18;5.43;;;3.38;;
5646;SDS011;2845;48.626;9.362;2023-06-22T08:09:52;4.40;;;2.83;;
5646;SDS011;2845;48.626;9.362;2023-06-22T08:12:27;4.85;;;2.85;;
5646;SDS011;2845;48.626;9.362;2023-06-22T08:15:02;4.68;;;2.53;;
5646;SDS011;2845;48.626;9.362;2023-06-22T08:17:37;5.13;;;2.83;;
5646;SDS011;2845;48.626;9.362;2023-06-22T08:20:12;5.50;;;2.55;;
5646;SDS011;2845;48.626;9.362;2023-06-22T08:22:46;4.03;;;2.75;;
5646;SDS011;2845;48.626;9.362;2023-06-22T08:25:21;4.35;;;2.90;;
5646;SDS011;2845;48.626;9.362;2023-06-22T08:27:56;6.55;;;3.30;;
5646;SDS011;2845;48.626;9.362;2023-06-22T08:30:30;5.43;;;3.17;;
5646;SDS011;2845;48.626;9.362;2023-06-22T08:33:05;5.60;;;3.20;;
5646;SDS011;2845;48.626;9.362;2023-06-22T08:35:39;6.40;;;3.15;;
5646;SDS011;2845;48.626;9.362;2023-06-22T08:38:13;6.63;;;3.58;;
5646;SDS011;2845;48.626;9.362;2023-06-22T08:40:50;6.72;;;3.78;;
5646;SDS011;2845;48.626;9.362;2023-06-22T08:43:25;6.85;;;3.65;;
5646;SDS011;2845;48.626;9.362;2023-06-22T08:45:59;5.30;;;3.25;;
5646;SDS011;2845;48.626;9.362;2023-06-22T08:48:35;5.60;;;3.10;;
5646;SDS011;2845;48.626;9.362;2023-06-22T08:51:09;7.25;;;3.60;;
5646;SDS011;2845;48.626;9.362;2023-06-22T08:53:43;5.97;;;3.85;;
5646;SDS011;2845;48.626;9.362;2023-06-22T08:56:18;7.90;;;3.80;;
5646;SDS011;2845;48.626;9.362;2023-06-22T08:58:53;6.10;;;3.67;;
5646;SDS011;2845;48.626;9.362;2023-06-22T09:01:29;8.93;;;4.05;;
5646;SDS011;2845;48.626;9.362;2023-06-22T09:04:03;5.90;;;3.78;;
5646;SDS011;2845;48.626;9.362;2023-06-22T09:06:40;7.35;;;3.90;;
5646;SDS011;2845;48.626;9.362;2023-06-22T09:09:17;6.53;;;3.78;;
5646;SDS011;2845;48.626;9.362;2023-06-22T09:11:52;6.38;;;3.70;;
5646;SDS011;2845;48.626;9.362;2023-06-22T09:14:27;6.47;;;3.75;;
5646;SDS011;2845;48.626;9.362;2023-06-22T09:17:02;5.03;;;3.20;;
5646;SDS011;2845;48.626;9.362;2023-06-22T09:19:36;6.90;;;3.55;;
5646;SDS011;2845;48.626;9.362;2023-06-22T09:22:10;8.05;;;3.80;;
5646;SDS011;2845;48.626;9.362;2023-06-22T09:24:45;7.47;;;3.70;;
5646;SDS011;2845;48.626;9.362;2023-06-22T09:27:19;5.63;;;3.75;;
5646;SDS011;2845;48.626;9.362;2023-06-22T09:29:56;6.93;;;3.88;;
5646;SDS011;2845;48.626;9.362;2023-06-22T09:32:30;7.72;;;3.65;;
5646;SDS011;2845;48.626;9.362;2023-06-22T09:35:05;7.72;;;4.38;;
5646;SDS011;2845;48.626;9.362;2023-06-22T09:37:44;7.17;;;4.20;;
5646;SDS011;2845;48.626;9.362;2023-06-22T09:40:18;6.13;;;4.10;;
5646;SDS011;2845;48.626;9.362;2023-06-22T09:42:52;5.10;;;3.72;;
5646;SDS011;2845;48.626;9.362;2023-06-22T09:45:28;6.00;;;4.15;;
5646;SDS011;2845;48.626;9.362;2023-06-22T09:48:02;5.72;;;3.78;;
5646;SDS011;2845;48.626;9.362;2023-06-22T09:50:37;4.60;;;3.53;;
5646;SDS011;2845;48.626;9.362;2023-06-22T09:53:11;8.65;;;3.90;;
5646;SDS011;2845;48.626;9.362;2023-06-22T09:55:45;6.53;;;3.90;;
5646;SDS011;2845;48.626;9.362;2023-06-22T09:58:20;6.60;;;3.58;;
5646;SDS011;2845;48.626;9.362;2023-06-22T10:00:55;5.70;;;3.88;;
5646;SDS011;2845;48.626;9.362;2023-06-22T10:03:30;7.22;;;3.70;;
5646;SDS011;2845;48.626;9.362;2023-06-22T10:06:04;7.40;;;3.95;;
5646;SDS011;2845;48.626;9.362;2023-06-22T10:08:39;6.85;;;4.13;;
5646;SDS011;2845;48.626;9.362;2023-06-22T10:11:14;7.03;;;3.50;;
5646;SDS011;2845;48.626;9.362;2023-06-22T10:13:48;6.68;;;4.10;;
5646;SDS011;2845;48.626;9.362;2023-06-22T10:16:29;5.32;;;4.18;;
5646;SDS011;2845;48.626;9.362;2023-06-22T10:19:04;6.75;;;4.15;;
5646;SDS011;2845;48.626;9.362;2023-06-22T10:21:39;8.60;;;4.10;;
5646;SDS011;2845;48.626;9.362;2023-06-22T10:24:13;6.50;;;4.18;;
5646;SDS011;2845;48.626;9.362;2023-06-22T10:26:47;7.93;;;3.65;;
5646;SDS011;2845;48.626;9.362;2023-06-22T10:29:21;6.30;;;3.50;;
5646;SDS011;2845;48.626;9.362;2023-06-22T10:31:57;6.13;;;3.65;;
5646;SDS011;2845;48.626;9.362;2023-06-22T10:34:31;7.70;;;4.20;;
5646;SDS011;2845;48.626;9.362;2023-06-22T10:37:06;5.70;;;3.90;;
5646;SDS011;2845;48.626;9.362;2023-06-22T10:39:40;4.90;;;3.75;;
5646;SDS011;2845;48.626;9.362;2023-06-22T10:42:14;8.60;;;3.70;;
5646;SDS011;2845;48.626;9.362;2023-06-22T10:44:49;5.38;;;3.60;;
5646;SDS011;2845;48.626;9.362;2023-06-22T10:47:24;8.48;;;4.05;;
5646;SDS011;2845;48.626;9.362;2023-06-22T10:49:59;8.60;;;4.22;;
5646;SDS011;2845;48.626;9.362;2023-06-22T10:52:33;6.45;;;3.80;;
5646;SDS011;2845;48.626;9.362;2023-06-22T10:55:08;6.38;;;4.10;;
5646;SDS011;2845;48.626;9.362;2023-06-22T10:57:42;5.55;;;3.78;;
5646;SDS011;2845;48.626;9.362;2023-06-22T11:00:19;6.28;;;4.50;;
5646;SDS011;2845;48.626;9.362;2023-06-22T11:02:55;8.20;;;4.68;;
5646;SDS011;2845;48.626;9.362;2023-06-22T11:05:31;5.45;;;3.42;;
5646;SDS011;2845;48.626;9.362;2023-06-22T11:08:05;7.28;;;4.25;;
5646;SDS011;2845;48.626;9.362;2023-06-22T11:10:39;6.97;;;3.80;;
5646;SDS011;2845;48.626;9.362;2023-06-22T11:13:14;7.15;;;4.40;;
5646;SDS011;2845;48.626;9.362;2023-06-22T11:15:48;7.00;;;4.30;;
5646;SDS011;2845;48.626;9.362;2023-06-22T11:18:23;10.27;;;4.25;;
5646;SDS011;2845;48.626;9.362;2023-06-22T11:20:58;8.82;;;4.88;;
5646;SDS011;2845;48.626;9.362;2023-06-22T11:23:32;9.10;;;3.90;;
5646;SDS011;2845;48.626;9.362;2023-06-22T11:26:07;7.45;;;4.32;;
5646;SDS011;2845;48.626;9.362;2023-06-22T11:28:42;5.55;;;3.67;;
5646;SDS011;2845;48.626;9.362;2023-06-22T11:31:17;7.35;;;3.67;;
5646;SDS011;2845;48.626;9.362;2023-06-22T11:33:59;6.15;;;4.10;;
5646;SDS011;2845;48.626;9.362;2023-06-22T11:36:34;5.57;;;3.67;;
5646;SDS011;2845;48.626;9.362;2023-06-22T11:39:08;6.43;;;3.72;;
5646;SDS011;2845;48.626;9.362;2023-06-22T11:41:43;6.50;;;4.05;;
5646;SDS011;2845;48.626;9.362;2023-06-22T11:44:17;6.18;;;4.10;;
5646;SDS011;2845;48.626;9.362;2023-06-22T11:46:52;6.25;;;3.92;;
5646;SDS011;2845;48.626;9.362;2023-06-22T11:49:27;7.28;;;4.60;;
5646;SDS011;2845;48.626;9.362;2023-06-22T11:52:01;7.47;;;4.30;;
5646;SDS011;2845;48.626;9.362;2023-06-22T11:54:36;8.75;;;4.72;;
5646;SDS011;2845;48.626;9.362;2023-06-22T11:57:10;7.43;;;4.47;;
5646;SDS011;2845;48.626;9.362;2023-06-22T11:59:45;6.28;;;3.72;;
5646;SDS011;2845;48.626;9.362;2023-06-22T12:02:19;9.15;;;4.50;;
5646;SDS011;2845;48.626;9.362;2023-06-22T12:04:55;7.45;;;4.13;;
5646;SDS011;2845;48.626;9.362;2023-06-22T12:07:30;7.10;;;4.03;;
5646;SDS011;2845;48.626;9.362;2023-06-22T12:10:05;8.23;;;4.95;;
5646;SDS011;2845;48.626;9.362;2023-06-22T12:12:40;5.57;;;4.47;;
5646;SDS011;2845;48.626;9.362;2023-06-22T12:15:14;8.88;;;4.60;;
5646;SDS011;2845;48.626;9.362;2023-06-22T12:17:49;7.43;;;4.68;;
5646;SDS011;2845;48.626;9.362;2023-06-22T12:20:25;7.47;;;4.75;;
5646;SDS011;2845;48.626;9.362;2023-06-22T12:23:00;7.55;;;4.70;;
5646;SDS011;2845;48.626;9.362;2023-06-22T12:25:34;6.53;;;4.55;;
5646;SDS011;2845;48.626;9.362;2023-06-22T12:28:09;6.47;;;3.78;;
5646;SDS011;2845;48.626;9.362;2023-06-22T12:30:43;6.22;;;3.33;;
5646;SDS011;2845;48.626;9.362;2023-06-22T12:33:17;5.80;;;3.97;;
5646;SDS011;2845;48.626;9.362;2023-06-22T12:35:53;5.57;;;3.67;;
5646;SDS011;2845;48.626;9.362;2023-06-22T12:38:27;7.75;;;4.63;;
5646;SDS011;2845;48.626;9.362;2023-06-22T12:41:02;4.97;;;3.58;;
5646;SDS011;2845;48.626;9.362;2023-06-22T12:43:36;5.93;;;3.80;;
5646;SDS011;2845;48.626;9.362;2023-06-22T12:46:10;6.05;;;3.58;;
5646;SDS011;2845;48.626;9.362;2023-06-22T12:48:44;7.70;;;3.55;;
5646;SDS011;2845;48.626;9.362;2023-06-22T12:51:23;4.82;;;3.40;;
5646;SDS011;2845;48.626;9.362;2023-06-22T12:53:57;9.17;;;4.77;;
5646;SDS011;2845;48.626;9.362;2023-06-22T12:56:31;8.07;;;4.32;;
5646;SDS011;2845;48.626;9.362;2023-06-22T12:59:06;7.85;;;4.38;;
5646;SDS011;2845;48.626;9.362;2023-06-22T13:01:40;6.30;;;4.18;;
5646;SDS011;2845;48.626;9.362;2023-06-22T13:04:16;8.27;;;3.70;;
5646;SDS011;2845;48.626;9.362;2023-06-22T13:06:52;6.28;;;3.35;;
5646;SDS011;2845;48.626;9.362;2023-06-22T13:09:26;7.15;;;3.72;;
5646;SDS011;2845;48.626;9.362;2023-06-22T13:12:00;5.07;;;3.85;;
5646;SDS011;2845;48.626;9.362;2023-06-22T13:14:35;4.95;;;3.60;;
5646;SDS011;2845;48.626;9.362;2023-06-22T13:17:09;6.78;;;3.80;;
5646;SDS011;2845;48.626;9.362;2023-06-22T13:19:44;8.10;;;4.05;;
5646;SDS011;2845;48.626;9.362;2023-06-22T13:22:28;6.50;;;3.83;;
5646;SDS011;2845;48.626;9.362;2023-06-22T13:25:05;6.93;;;3.88;;
5646;SDS011;2845;48.626;9.362;2023-06-22T13:27:44;5.18;;;3.58;;
5646;SDS011;2845;48.626;9.362;2023-06-22T13:30:18;6.75;;;3.75;;
5646;SDS011;2845;48.626;9.362;2023-06-22T13:32:53;5.90;;;3.42;;
5646;SDS011;2845;48.626;9.362;2023-06-22T13:35:27;5.72;;;3.80;;
5646;SDS011;2845;48.626;9.362;2023-06-22T13:38:03;6.85;;;3.60;;
5646;SDS011;2845;48.626;9.362;2023-06-22T13:40:37;5.38;;;3.67;;
5646;SDS011;2845;48.626;9.362;2023-06-22T13:43:12;6.43;;;3.80;;
5646;SDS011;2845;48.626;9.362;2023-06-22T13:45:46;5.30;;;3.30;;
5646;SDS011;2845;48.626;9.362;2023-06-22T13:48:20;6.47;;;3.60;;
5646;SDS011;2845;48.626;9.362;2023-06-22T13:50:55;8.15;;;3.80;;
5646;SDS011;2845;48.626;9.362;2023-06-22T13:53:32;5.43;;;3.90;;
5646;SDS011;2845;48.626;9.362;2023-06-22T13:56:06;6.85;;;3.28;;
5646;SDS011;2845;48.626;9.362;2023-06-22T13:58:40;7.35;;;3.50;;
5646;SDS011;2845;48.626;9.362;2023-06-22T14:01:16;6.65;;;3.85;;
5646;SDS011;2845;48.626;9.362;2023-06-22T14:03:50;7.10;;;3.67;;
5646;SDS011;2845;48.626;9.362;2023-06-22T14:06:24;6.72;;;3.45;;
5646;SDS011;2845;48.626;9.362;2023-06-22T14:09:00;7.40;;;3.30;;
5646;SDS011;2845;48.626;9.362;2023-06-22T14:11:35;6.72;;;3.67;;
5646;SDS011;2845;48.626;9.362;2023-06-22T14:14:10;7.47;;;3.83;;
5646;SDS011;2845;48.626;9.362;2023-06-22T14:16:44;6.65;;;3.65;;
5646;SDS011;2845;48.626;9.362;2023-06-22T14:19:18;6.25;;;3.47;;
5646;SDS011;2845;48.626;9.362;2023-06-22T14:21:52;4.68;;;3.42;;
5646;SDS011;2845;48.626;9.362;2023-06-22T14:24:28;5.68;;;3.70;;
5646;SDS011;2845;48.626;9.362;2023-06-22T14:27:03;5.60;;;3.72;;
5646;SDS011;2845;48.626;9.362;2023-06-22T14:29:40;6.55;;;3.40;;
5646;SDS011;2845;48.626;9.362;2023-06-22T14:32:14;4.97;;;3.35;;
5646;SDS011;2845;48.626;9.362;2023-06-22T14:34:49;6.82;;;3.70;;
5646;SDS011;2845;48.626;9.362;2023-06-22T14:37:23;6.72;;;3.40;;
5646;SDS011;2845;48.626;9.362;2023-06-22T14:39:58;6.82;;;3.90;;
5646;SDS011;2845;48.626;9.362;2023-06-22T14:42:33;5.65;;;3.50;;
5646;SDS011;2845;48.626;9.362;2023-06-22T14:45:07;4.40;;;3.30;;
5646;SDS011;2845;48.626;9.362;2023-06-22T14:47:42;6.10;;;3.63;;
5646;SDS011;2845;48.626;9.362;2023-06-22T14:50:16;9.48;;;3.67;;
5646;SDS011;2845;48.626;9.362;2023-06-22T14:52:51;9.77;;;3.40;;
5646;SDS011;2845;48.626;9.362;2023-06-22T14:55:26;8.25;;;4.10;;
5646;SDS011;2845;48.626;9.362;2023-06-22T14:58:01;8.55;;;4.05;;
5646;SDS011;2845;48.626;9.362;2023-06-22T15:00:35;6.97;;;3.63;;
5646;SDS011;2845;48.626;9.362;2023-06-22T15:03:09;6.53;;;3.95;;
5646;SDS011;2845;48.626;9.362;2023-06-22T15:05:49;7.22;;;3.58;;
5646;SDS011;2845;48.626;9.362;2023-06-22T15:08:24;10.30;;;3.97;;
5646;SDS011;2845;48.626;9.362;2023-06-22T15:11:00;7.30;;;4.28;;
5646;SDS011;2845;48.626;9.362;2023-06-22T15:13:35;9.43;;;4.18;;
5646;SDS011;2845;48.626;9.362;2023-06-22T15:16:12;7.03;;;4.15;;
5646;SDS011;2845;48.626;9.362;2023-06-22T15:18:46;5.70;;;3.80;;
5646;SDS011;2845;48.626;9.362;2023-06-22T15:21:21;6.30;;;4.25;;
5646;SDS011;2845;48.626;9.362;2023-06-22T15:23:55;7.43;;;3.60;;
5646;SDS011;2845;48.626;9.362;2023-06-22T15:26:31;7.05;;;3.95;;
5646;SDS011;2845;48.626;9.362;2023-06-22T15:29:05;6.57;;;3.85;;
5646;SDS011;2845;48.626;9.362;2023-06-22T15:31:40;11.00;;;4.40;;
5646;SDS011;2845;48.626;9.362;2023-06-22T15:34:14;6.72;;;3.90;;
5646;SDS011;2845;48.626;9.362;2023-06-22T15:36:49;5.75;;;3.90;;
5646;SDS011;2845;48.626;9.362;2023-06-22T15:39:24;5.70;;;3.55;;
5646;SDS011;2845;48.626;9.362;2023-06-22T15:42:00;7.00;;;4.30;;
5646;SDS011;2845;48.626;9.362;2023-06-22T15:44:34;8.32;;;3.75;;
5646;SDS011;2845;48.626;9.362;2023-06-22T15:47:09;6.65;;;3.50;;
5646;SDS011;2845;48.626;9.362;2023-06-22T15:49:43;5.32;;;3.08;;
5646;SDS011;2845;48.626;9.362;2023-06-22T15:52:17;6.68;;;2.60;;
5646;SDS011;2845;48.626;9.362;2023-06-22T15:54:52;4.03;;;3.03;;
5646;SDS011;2845;48.626;9.362;2023-06-22T15:57:31;8.27;;;2.90;;
5646;SDS011;2845;48.626;9.362;2023-06-22T16:00:07;7.25;;;2.85;;
5646;SDS011;2845;48.626;9.362;2023-06-22T16:02:46;6.25;;;2.97;;
5646;SDS011;2845;48.626;9.362;2023-06-22T16:05:21;6.95;;;2.55;;